Time,TemperatureF,DewpointF,PressureIn,WindDirection,WindDirectionDegrees,WindSpeedMPH,WindSpeedGustMPH,Humidity,HourlyPrecipIn,Conditions,Clouds,dailyrainin,SolarRadiationWatts/m^2,SoftwareType,DateUTC
2013-03-02 00:21:00,45.0,27.0,-100.00,NNW,327,5.0,10.0,50,0.00,,,0.00,0.000000,,2013-03-02 07:21:00,
2013-03-02 00:32:00,45.0,27.0,-100.00,NNW,327,5.0,10.0,50,0.00,,,0.00,0.000000,,2013-03-02 07:32:00,
2013-03-02 00:42:00,45.0,27.0,-100.00,NNW,327,5.0,10.0,50,0.00,,,0.00,0.000000,,2013-03-02 07:42:00,
2013-03-02 00:51:00,45.0,27.0,-100.00,NNW,327,5.0,10.0,50,0.00,,,0.00,0.000000,,2013-03-02 07:51:00,
2013-03-02 01:32:00,43.0,28.0,-100.00,WNW,298,7.0,12.0,55,0.00,,,0.00,0.000000,,2013-03-02 08:32:00,
2013-03-02 01:42:00,43.0,28.0,-100.00,WNW,298,7.0,12.0,55,0.00,,,0.00,0.000000,,2013-03-02 08:42:00,
2013-03-02 01:52:00,43.0,28.0,-100.00,WNW,298,7.0,12.0,55,0.00,,,0.00,0.000000,,2013-03-02 08:52:00,
2013-03-02 02:21:00,42.0,26.0,-100.00,NW,305,3.0,14.0,52,0.00,,,-99.99,0.000000,,2013-03-02 09:21:00,
2013-03-02 02:31:00,42.0,26.0,-100.00,NW,305,3.0,14.0,52,0.00,,,-99.99,0.000000,,2013-03-02 09:31:00,
2013-03-02 02:42:00,42.0,26.0,-100.00,NW,305,3.0,14.0,52,0.00,,,-99.99,0.000000,,2013-03-02 09:42:00,
2013-03-02 02:51:00,42.0,26.0,-100.00,NW,305,3.0,14.0,52,0.00,,,-99.99,0.000000,,2013-03-02 09:51:00,
2013-03-02 03:31:00,44.0,31.0,-100.00,WSW,244,5.0,9.0,60,0.00,,,0.00,0.000000,,2013-03-02 10:31:00,
2013-03-02 03:42:00,44.0,31.0,-100.00,WSW,244,5.0,9.0,60,0.00,,,0.00,0.000000,,2013-03-02 10:42:00,
2013-03-02 03:51:00,44.0,31.0,-100.00,WSW,244,5.0,9.0,60,0.00,,,0.00,0.000000,,2013-03-02 10:51:00,
2013-03-02 04:32:00,45.0,28.0,-100.00,WNW,292,6.0,15.0,51,0.00,,,-99.99,0.000000,,2013-03-02 11:32:00,
2013-03-02 04:41:00,45.0,28.0,-100.00,WNW,292,6.0,15.0,51,0.00,,,-99.99,0.000000,,2013-03-02 11:41:00,
2013-03-02 04:52:00,45.0,28.0,-100.00,WNW,292,6.0,15.0,51,0.00,,,-99.99,0.000000,,2013-03-02 11:52:00,
2013-03-02 05:21:00,45.0,29.0,-100.00,NW,310,5.0,13.0,53,0.00,,,0.00,0.000000,,2013-03-02 12:21:00,
2013-03-02 05:32:00,45.0,29.0,-100.00,NW,310,5.0,13.0,53,0.00,,,0.00,0.000000,,2013-03-02 12:32:00,
2013-03-02 05:43:00,45.0,29.0,-100.00,NW,310,5.0,13.0,53,0.00,,,0.00,0.000000,,2013-03-02 12:43:00,
2013-03-02 05:53:00,45.0,29.0,-100.00,NW,310,5.0,13.0,53,0.00,,,0.00,0.000000,,2013-03-02 12:53:00,
2013-03-02 06:21:00,41.0,26.0,-100.00,SSW,193,4.0,11.0,54,0.00,,,0.00,0.000000,,2013-03-02 13:21:00,
2013-03-02 06:31:00,41.0,26.0,-100.00,SSW,193,4.0,11.0,54,0.00,,,0.00,0.000000,,2013-03-02 13:31:00,
2013-03-02 06:41:00,41.0,26.0,-100.00,SSW,193,4.0,11.0,54,0.00,,,0.00,0.000000,,2013-03-02 13:41:00,
2013-03-02 06:52:00,41.0,26.0,-100.00,SSW,193,4.0,11.0,54,0.00,,,0.00,0.000000,,2013-03-02 13:52:00,
2013-03-02 07:21:00,35.0,21.0,-100.00,SSE,149,6.0,11.0,56,0.00,,,0.00,2.000000,,2013-03-02 14:21:00,
2013-03-02 07:32:00,35.0,21.0,-100.00,SSE,149,6.0,11.0,56,0.00,,,0.00,2.000000,,2013-03-02 14:32:00,
2013-03-02 07:42:00,35.0,21.0,-100.00,SSE,149,6.0,11.0,56,0.00,,,0.00,2.000000,,2013-03-02 14:42:00,
2013-03-02 07:52:00,35.0,21.0,-100.00,SSE,149,6.0,11.0,56,0.00,,,0.00,2.000000,,2013-03-02 14:52:00,
2013-03-02 08:31:00,36.0,27.0,-100.00,SE,141,7.0,10.0,69,0.00,,,0.00,55.000000,,2013-03-02 15:31:00,
2013-03-02 08:41:00,36.0,27.0,-100.00,SE,141,7.0,10.0,69,0.00,,,0.00,55.000000,,2013-03-02 15:41:00,
2013-03-02 08:51:00,36.0,27.0,-100.00,SE,141,7.0,10.0,69,0.00,,,0.00,55.000000,,2013-03-02 15:51:00,
2013-03-02 09:21:00,42.0,29.0,-100.00,ESE,109,4.0,9.0,60,0.00,,,0.00,162.000000,,2013-03-02 16:21:00,
2013-03-02 09:31:00,42.0,29.0,-100.00,ESE,109,4.0,9.0,60,0.00,,,0.00,162.000000,,2013-03-02 16:31:00,
2013-03-02 09:41:00,42.0,29.0,-100.00,ESE,109,4.0,9.0,60,0.00,,,0.00,162.000000,,2013-03-02 16:41:00,
2013-03-02 09:51:00,42.0,29.0,-100.00,ESE,109,4.0,9.0,60,0.00,,,0.00,162.000000,,2013-03-02 16:51:00,
2013-03-02 10:32:00,46.0,34.0,-100.00,SSE,161,7.0,10.0,62,0.00,,,0.00,303.000000,,2013-03-02 17:32:00,
2013-03-02 10:41:00,46.0,34.0,-100.00,SSE,161,7.0,10.0,62,0.00,,,0.00,303.000000,,2013-03-02 17:41:00,
2013-03-02 10:52:00,46.0,34.0,-100.00,SSE,161,7.0,10.0,62,0.00,,,0.00,303.000000,,2013-03-02 17:52:00,
2013-03-02 11:22:00,52.0,33.0,-100.00,SSE,165,7.0,10.0,49,0.00,,,0.00,492.000000,,2013-03-02 18:22:00,
2013-03-02 11:31:00,52.0,33.0,-100.00,SSE,165,7.0,10.0,49,0.00,,,0.00,492.000000,,2013-03-02 18:31:00,
2013-03-02 11:41:00,52.0,33.0,-100.00,SSE,165,7.0,10.0,49,0.00,,,0.00,492.000000,,2013-03-02 18:41:00,
2013-03-02 11:51:00,52.0,33.0,-100.00,SSE,165,7.0,10.0,49,0.00,,,0.00,492.000000,,2013-03-02 18:51:00,
2013-03-02 12:31:00,52.0,32.0,-100.00,SSE,166,11.0,13.0,47,0.00,,,0.00,565.000000,,2013-03-02 19:31:00,
2013-03-02 12:42:00,52.0,32.0,-100.00,SSE,166,11.0,13.0,47,0.00,,,0.00,565.000000,,2013-03-02 19:42:00,
2013-03-02 12:52:00,52.0,32.0,-100.00,SSE,166,11.0,13.0,47,0.00,,,0.00,565.000000,,2013-03-02 19:52:00,
2013-03-02 13:21:00,56.0,35.0,-100.00,SE,130,8.0,13.0,45,0.00,,,0.00,552.000000,,2013-03-02 20:21:00,
2013-03-02 13:32:00,56.0,35.0,-100.00,SE,130,8.0,13.0,45,0.00,,,0.00,552.000000,,2013-03-02 20:32:00,
2013-03-02 13:41:00,56.0,35.0,-100.00,SE,130,8.0,13.0,45,0.00,,,0.00,552.000000,,2013-03-02 20:41:00,
2013-03-02 13:52:00,56.0,35.0,-100.00,SE,130,8.0,13.0,45,0.00,,,0.00,552.000000,,2013-03-02 20:52:00,
2013-03-02 15:21:00,63.0,29.0,-100.00,West,268,18.0,26.0,28,-99.99,,,-99.99,467.000000,,2013-03-02 22:21:00,
2013-03-02 15:32:00,63.0,29.0,-100.00,West,268,18.0,26.0,28,-99.99,,,-99.99,467.000000,,2013-03-02 22:32:00,
2013-03-02 15:42:00,63.0,29.0,-100.00,West,268,18.0,26.0,28,-99.99,,,-99.99,467.000000,,2013-03-02 22:42:00,
2013-03-02 15:51:00,63.0,29.0,-100.00,West,268,18.0,26.0,28,-99.99,,,-99.99,467.000000,,2013-03-02 22:51:00,
2013-03-02 16:11:00,58.0,29.0,-100.00,West,264,14.0,27.0,33,0.00,,,0.00,225.000000,,2013-03-02 23:11:00,
2013-03-02 16:21:00,58.0,29.0,-100.00,West,264,14.0,27.0,33,0.00,,,0.00,225.000000,,2013-03-02 23:21:00,
2013-03-02 16:32:00,58.0,29.0,-100.00,West,264,14.0,27.0,33,0.00,,,0.00,225.000000,,2013-03-02 23:32:00,
2013-03-02 16:42:00,58.0,29.0,-100.00,West,264,14.0,27.0,33,0.00,,,0.00,225.000000,,2013-03-02 23:42:00,
2013-03-02 16:52:00,58.0,29.0,-100.00,West,264,14.0,27.0,33,0.00,,,0.00,225.000000,,2013-03-02 23:52:00,
2013-03-02 17:32:00,55.0,28.0,-100.00,West,262,13.0,21.0,35,0.00,,,0.00,91.000000,,2013-03-03 00:32:00,
2013-03-02 17:42:00,55.0,28.0,-100.00,West,262,13.0,21.0,35,0.00,,,0.00,91.000000,,2013-03-03 00:42:00,
2013-03-02 17:52:00,55.0,28.0,-100.00,West,262,13.0,21.0,35,0.00,,,0.00,91.000000,,2013-03-03 00:52:00,
2013-03-02 18:31:00,52.0,28.0,-100.00,West,262,9.0,21.0,39,0.00,,,0.00,20.000000,,2013-03-03 01:31:00,
2013-03-02 18:41:00,52.0,28.0,-100.00,West,262,9.0,21.0,39,0.00,,,0.00,20.000000,,2013-03-03 01:41:00,
2013-03-02 18:52:00,52.0,28.0,-100.00,West,262,9.0,21.0,39,0.00,,,0.00,20.000000,,2013-03-03 01:52:00,
2013-03-02 19:31:00,51.0,27.0,-100.00,NNE,21,4.0,15.0,39,0.00,,,0.00,0.000000,,2013-03-03 02:31:00,
2013-03-02 19:41:00,51.0,27.0,-100.00,NNE,21,4.0,15.0,39,0.00,,,0.00,0.000000,,2013-03-03 02:41:00,
2013-03-02 19:52:00,51.0,27.0,-100.00,NNE,21,4.0,15.0,39,0.00,,,0.00,0.000000,,2013-03-03 02:52:00,
2013-03-02 20:31:00,48.0,32.0,-100.00,SE,141,4.0,12.0,54,0.00,,,0.00,0.000000,,2013-03-03 03:31:00,
2013-03-02 20:41:00,48.0,32.0,-100.00,SE,141,4.0,12.0,54,0.00,,,0.00,0.000000,,2013-03-03 03:41:00,
2013-03-02 20:51:00,48.0,32.0,-100.00,SE,141,4.0,12.0,54,0.00,,,0.00,0.000000,,2013-03-03 03:51:00,
2013-03-02 21:21:00,44.0,31.0,-100.00,ESE,115,7.0,12.0,61,0.00,,,0.00,0.000000,,2013-03-03 04:21:00,
2013-03-02 21:31:00,44.0,31.0,-100.00,ESE,115,7.0,12.0,61,0.00,,,0.00,0.000000,,2013-03-03 04:31:00,
2013-03-02 21:41:00,44.0,31.0,-100.00,ESE,115,7.0,12.0,61,0.00,,,0.00,0.000000,,2013-03-03 04:41:00,
2013-03-02 21:51:00,44.0,31.0,-100.00,ESE,115,7.0,12.0,61,0.00,,,0.00,0.000000,,2013-03-03 04:51:00,
2013-03-02 22:32:00,41.0,29.0,-100.00,SE,126,8.0,11.0,63,0.00,,,0.00,0.000000,,2013-03-03 05:32:00,
2013-03-02 22:42:00,41.0,29.0,-100.00,SE,126,8.0,11.0,63,0.00,,,0.00,0.000000,,2013-03-03 05:42:00,
2013-03-02 22:52:00,41.0,29.0,-100.00,SE,126,8.0,11.0,63,0.00,,,0.00,0.000000,,2013-03-03 05:52:00,
2013-03-02 23:21:00,40.0,30.0,-100.00,SE,131,9.0,12.0,68,0.00,,,0.00,0.000000,,2013-03-03 06:21:00,
2013-03-02 23:31:00,40.0,30.0,-100.00,SE,131,9.0,12.0,68,0.00,,,0.00,0.000000,,2013-03-03 06:31:00,
2013-03-02 23:42:00,40.0,30.0,-100.00,SE,131,9.0,12.0,68,0.00,,,0.00,0.000000,,2013-03-03 06:42:00,
2013-03-02 23:52:00,40.0,30.0,-100.00,SE,131,9.0,12.0,68,0.00,,,0.00,0.000000,,2013-03-03 06:52:00,